Time;durP1;ratioP1;P1;durP2;ratioP2;P2;SDS_P1;SDS_P2;PMS_P1;PMS_P2;Temp;Humidity;BMP_temperature;BMP_pressure;BME280_temperature;BME280_humidity;BME280_pressure;Samples;Min_cycle;Max_cycle;Signal;HPM_P1;HPM_P2
2021/07/19 00:00:36;;;;;;;2.30;1.48;;;;;;;;;;5028474;28;20117;-62
2021/07/19 00:03:02;;;;;;;1.60;1.30;;;;;;;;;;5027611;28;20033;-62
2021/07/19 00:05:28;;;;;;;4.18;1.63;;;;;;;;;;5028453;28;20084;-62
2021/07/19 00:07:55;;;;;;;1.88;1.45;;;;;;;;;;5031482;28;20028;-62
2021/07/19 00:10:21;;;;;;;1.95;1.42;;;;;;;;;;5029942;28;20034;-61
2021/07/19 00:12:48;;;;;;;2.13;1.73;;;;;;;;;;5028089;28;20768;-62
2021/07/19 00:15:15;;;;;;;2.35;1.70;;;;;;;;;;5028984;28;20392;-61
2021/07/19 00:17:42;;;;;;;2.63;1.63;;;;;;;;;;5029002;28;20469;-62
2021/07/19 00:20:09;;;;;;;1.70;1.60;;;;;;;;;;5029800;28;20029;-61
2021/07/19 00:22:35;;;;;;;1.85;1.60;;;;;;;;;;5027893;28;20442;-62
2021/07/19 00:25:01;;;;;;;2.42;1.42;;;;;;;;;;5027834;28;20025;-62
2021/07/19 00:27:27;;;;;;;2.47;1.90;;;;;;;;;;5027750;28;20029;-62
2021/07/19 00:29:53;;;;;;;2.28;1.80;;;;;;;;;;5031056;28;20025;-61
2021/07/19 00:32:19;;;;;;;2.38;1.80;;;;;;;;;;5027788;28;20748;-61
2021/07/19 00:34:45;;;;;;;3.40;1.92;;;;;;;;;;5028338;28;20021;-61
2021/07/19 00:37:11;;;;;;;2.17;1.65;;;;;;;;;;5027908;28;20029;-62
2021/07/19 00:39:37;;;;;;;2.45;1.77;;;;;;;;;;5030564;28;20542;-61
2021/07/19 00:42:04;;;;;;;2.15;1.90;;;;;;;;;;5027643;28;20515;-62
2021/07/19 00:44:30;;;;;;;1.75;1.65;;;;;;;;;;5026808;28;20013;-62
2021/07/19 00:46:56;;;;;;;3.90;1.63;;;;;;;;;;5026811;28;20037;-62
2021/07/19 00:49:23;;;;;;;2.25;1.73;;;;;;;;;;5030967;28;20025;-62
2021/07/19 00:51:50;;;;;;;1.55;1.38;;;;;;;;;;5029656;28;20171;-62
2021/07/19 00:54:19;;;;;;;2.55;1.60;;;;;;;;;;5027513;28;20029;-62
2021/07/19 00:56:45;;;;;;;1.73;1.60;;;;;;;;;;5028119;28;20052;-62
2021/07/19 00:59:14;;;;;;;1.92;1.73;;;;;;;;;;5031432;28;20495;-62
2021/07/19 01:01:40;;;;;;;2.28;1.83;;;;;;;;;;5043790;28;20035;-62
2021/07/19 01:04:08;;;;;;;1.90;1.60;;;;;;;;;;5047108;28;20305;-62
2021/07/19 01:06:36;;;;;;;2.55;1.98;;;;;;;;;;5047289;28;20715;-62
2021/07/19 01:09:03;;;;;;;2.00;1.80;;;;;;;;;;5039274;28;20022;-62
2021/07/19 01:11:30;;;;;;;2.63;1.70;;;;;;;;;;5027316;28;20073;-62
2021/07/19 01:13:56;;;;;;;2.60;1.63;;;;;;;;;;5027071;28;20373;-63
2021/07/19 01:16:22;;;;;;;2.08;1.77;;;;;;;;;;5027177;28;20029;-62
2021/07/19 01:18:48;;;;;;;2.90;1.90;;;;;;;;;;5030089;28;20025;-62
2021/07/19 01:21:33;;;;;;;2.08;1.75;;;;;;;;;;5027813;28;20034;-62
2021/07/19 01:24:12;;;;;;;2.72;1.77;;;;;;;;;;5027099;28;20139;-62
2021/07/19 01:26:47;;;;;;;2.00;1.80;;;;;;;;;;5027029;28;20037;-62
2021/07/19 01:29:16;;;;;;;2.78;1.83;;;;;;;;;;5029928;28;20028;-62
2021/07/19 01:31:43;;;;;;;2.30;1.83;;;;;;;;;;5027146;28;20022;-62
2021/07/19 01:34:15;;;;;;;2.15;1.95;;;;;;;;;;5030592;28;20100;-62
2021/07/19 01:36:46;;;;;;;3.08;1.77;;;;;;;;;;5047283;28;20060;-62
2021/07/19 01:39:13;;;;;;;2.22;1.80;;;;;;;;;;5034250;28;20033;-62
2021/07/19 01:41:41;;;;;;;3.38;2.22;;;;;;;;;;5026865;28;20112;-62
2021/07/19 01:44:08;;;;;;;3.10;2.22;;;;;;;;;;5026219;28;20033;-62
2021/07/19 01:46:34;;;;;;;2.90;2.20;;;;;;;;;;5026494;28;20028;-62
2021/07/19 01:49:01;;;;;;;3.72;1.90;;;;;;;;;;5028649;28;20470;-62
2021/07/19 01:51:28;;;;;;;2.97;2.20;;;;;;;;;;5030313;28;20068;-62
2021/07/19 01:53:55;;;;;;;2.35;2.10;;;;;;;;;;5026375;28;20029;-62
2021/07/19 01:56:21;;;;;;;2.80;2.10;;;;;;;;;;5030576;28;20037;-62
2021/07/19 01:58:48;;;;;;;3.10;2.03;;;;;;;;;;5034569;28;20507;-62
2021/07/19 02:01:14;;;;;;;2.65;2.03;;;;;;;;;;5042691;28;20032;-62
2021/07/19 02:03:40;;;;;;;2.10;1.90;;;;;;;;;;5030521;28;20040;-62
2021/07/19 02:06:07;;;;;;;2.40;2.03;;;;;;;;;;5029521;28;20036;-62
2021/07/19 02:08:34;;;;;;;2.88;2.35;;;;;;;;;;5033381;28;20065;-62
2021/07/19 02:11:00;;;;;;;2.70;2.33;;;;;;;;;;5030377;28;20029;-62
2021/07/19 02:13:27;;;;;;;2.83;2.10;;;;;;;;;;5030561;28;20029;-62
2021/07/19 02:15:55;;;;;;;2.58;1.98;;;;;;;;;;5030252;28;20434;-62
2021/07/19 02:18:23;;;;;;;2.45;2.13;;;;;;;;;;5034066;28;20495;-62
2021/07/19 02:20:50;;;;;;;2.95;2.20;;;;;;;;;;5030774;28;20056;-62
2021/07/19 02:23:16;;;;;;;3.33;2.33;;;;;;;;;;5030778;28;20025;-62
2021/07/19 02:25:43;;;;;;;2.78;2.20;;;;;;;;;;5030388;28;20554;-62
2021/07/19 02:28:12;;;;;;;3.30;2.42;;;;;;;;;;5032891;28;20021;-62
2021/07/19 02:30:39;;;;;;;3.28;2.38;;;;;;;;;;5029924;28;20060;-62
2021/07/19 02:33:06;;;;;;;2.88;2.08;;;;;;;;;;5033797;28;20029;-62
2021/07/19 02:35:32;;;;;;;2.20;1.98;;;;;;;;;;5030263;28;20112;-62
2021/07/19 02:38:01;;;;;;;2.65;2.10;;;;;;;;;;5033364;28;20582;-62
2021/07/19 02:40:27;;;;;;;3.17;2.38;;;;;;;;;;5030295;28;20151;-62
2021/07/19 02:42:58;;;;;;;2.65;2.17;;;;;;;;;;5029848;28;20056;-62
2021/07/19 02:45:25;;;;;;;3.30;2.20;;;;;;;;;;5029512;28;20044;-62
2021/07/19 02:47:52;;;;;;;3.10;2.35;;;;;;;;;;5032600;28;20025;-62
2021/07/19 02:50:19;;;;;;;2.88;2.20;;;;;;;;;;5030717;28;20056;-62
2021/07/19 02:52:46;;;;;;;3.75;2.50;;;;;;;;;;5030502;28;20029;-62
2021/07/19 02:55:13;;;;;;;2.88;2.17;;;;;;;;;;5029636;28;20033;-62
2021/07/19 02:57:39;;;;;;;3.80;2.70;;;;;;;;;;5030452;28;20048;-62
2021/07/19 03:00:08;;;;;;;3.13;2.50;;;;;;;;;;5032054;28;20044;-62
2021/07/19 03:02:34;;;;;;;4.28;2.60;;;;;;;;;;5034006;28;20029;-62
2021/07/19 03:05:02;;;;;;;3.28;2.30;;;;;;;;;;5029192;28;20025;-61
2021/07/19 03:07:29;;;;;;;3.70;2.50;;;;;;;;;;5028259;28;20018;-62
2021/07/19 03:09:58;;;;;;;3.67;2.80;;;;;;;;;;5031836;28;20032;-62
2021/07/19 03:12:25;;;;;;;2.97;2.30;;;;;;;;;;5029867;28;20033;-61
2021/07/19 03:14:53;;;;;;;4.63;2.80;;;;;;;;;;5029116;28;20037;-62
2021/07/19 03:17:19;;;;;;;3.10;2.53;;;;;;;;;;5030048;28;20033;-62
2021/07/19 03:19:47;;;;;;;4.47;2.75;;;;;;;;;;5043044;28;20029;-62
2021/07/19 03:22:15;;;;;;;3.63;2.80;;;;;;;;;;5049210;28;20115;-62
2021/07/19 03:24:45;;;;;;;3.10;2.80;;;;;;;;;;5049089;28;20417;-62
2021/07/19 03:27:11;;;;;;;3.30;2.58;;;;;;;;;;5047119;28;20032;-62
2021/07/19 03:29:37;;;;;;;3.05;2.47;;;;;;;;;;5045712;28;20033;-62
2021/07/19 03:32:04;;;;;;;3.92;2.80;;;;;;;;;;5046983;28;20491;-62
2021/07/19 03:34:31;;;;;;;4.78;3.25;;;;;;;;;;5031983;28;20430;-62
2021/07/19 03:36:57;;;;;;;4.55;2.92;;;;;;;;;;5029042;28;20092;-62
2021/07/19 03:39:24;;;;;;;3.10;2.45;;;;;;;;;;5032387;28;20647;-61
2021/07/19 03:41:51;;;;;;;3.35;2.50;;;;;;;;;;5033106;28;20025;-62
2021/07/19 03:44:17;;;;;;;4.00;3.13;;;;;;;;;;5033193;28;20247;-62
2021/07/19 03:46:44;;;;;;;4.25;2.95;;;;;;;;;;5028605;28;20021;-62
2021/07/19 03:49:14;;;;;;;4.38;2.95;;;;;;;;;;5029061;28;20108;-62
2021/07/19 03:51:42;;;;;;;4.28;2.65;;;;;;;;;;5032208;28;20108;-62
2021/07/19 03:54:08;;;;;;;3.60;2.60;;;;;;;;;;5028716;28;20035;-62
2021/07/19 03:56:36;;;;;;;4.05;2.90;;;;;;;;;;5028998;28;20030;-62
2021/07/19 03:59:02;;;;;;;2.75;2.35;;;;;;;;;;5028335;28;20112;-61
2021/07/19 04:01:29;;;;;;;3.20;2.40;;;;;;;;;;5032235;28;20083;-62
2021/07/19 04:04:05;;;;;;;3.30;2.55;;;;;;;;;;5029062;28;20061;-62
2021/07/19 04:06:31;;;;;;;3.03;2.60;;;;;;;;;;5028826;28;20096;-62
2021/07/19 04:08:57;;;;;;;3.10;2.50;;;;;;;;;;5028493;28;20021;-62
2021/07/19 04:11:23;;;;;;;3.25;2.60;;;;;;;;;;5031672;28;20022;-62
2021/07/19 04:13:50;;;;;;;3.67;2.60;;;;;;;;;;5028755;28;20499;-62
2021/07/19 04:16:18;;;;;;;2.50;2.17;;;;;;;;;;5028546;28;20524;-62
2021/07/19 04:18:45;;;;;;;3.47;2.92;;;;;;;;;;5028387;28;20036;-62
2021/07/19 04:21:11;;;;;;;3.35;2.70;;;;;;;;;;5028900;28;20041;-62
2021/07/19 04:23:37;;;;;;;3.13;2.55;;;;;;;;;;5028214;28;20039;-62
2021/07/19 04:26:03;;;;;;;3.70;2.50;;;;;;;;;;5028919;28;20029;-62
2021/07/19 04:28:29;;;;;;;3.15;2.50;;;;;;;;;;5030796;28;20117;-62
2021/07/19 04:30:57;;;;;;;3.63;2.80;;;;;;;;;;5031695;28;20025;-62
2021/07/19 04:33:23;;;;;;;3.97;2.67;;;;;;;;;;5028240;28;20029;-62
2021/07/19 04:35:50;;;;;;;3.60;2.63;;;;;;;;;;5028612;28;20029;-62
2021/07/19 04:38:21;;;;;;;3.60;2.83;;;;;;;;;;5028371;28;20070;-61
2021/07/19 04:40:48;;;;;;;4.10;2.90;;;;;;;;;;5031677;28;20025;-61
2021/07/19 04:43:17;;;;;;;3.45;2.70;;;;;;;;;;5047594;28;20059;-62
2021/07/19 04:45:47;;;;;;;4.78;3.03;;;;;;;;;;5047515;28;20817;-62
2021/07/19 04:48:14;;;;;;;2.63;2.40;;;;;;;;;;5047755;28;20021;-62
2021/07/19 04:50:40;;;;;;;3.67;2.70;;;;;;;;;;5046039;28;20454;-61
2021/07/19 04:53:06;;;;;;;3.33;2.38;;;;;;;;;;5028914;28;20021;-62
2021/07/19 04:55:34;;;;;;;3.22;2.45;;;;;;;;;;5028044;28;20033;-62
2021/07/19 04:58:01;;;;;;;3.70;2.50;;;;;;;;;;5027670;28;20025;-62
2021/07/19 05:00:28;;;;;;;3.47;2.70;;;;;;;;;;5030916;28;20037;-61
2021/07/19 05:02:55;;;;;;;3.30;2.55;;;;;;;;;;5028386;28;20056;-62
2021/07/19 05:05:22;;;;;;;3.15;2.42;;;;;;;;;;5033656;28;20034;-62
2021/07/19 05:07:50;;;;;;;4.13;2.83;;;;;;;;;;5027798;28;20021;-62
2021/07/19 05:10:17;;;;;;;3.38;2.67;;;;;;;;;;5029592;28;20503;-62
2021/07/19 05:12:45;;;;;;;3.08;2.45;;;;;;;;;;5027579;28;20096;-62
2021/07/19 05:15:12;;;;;;;4.72;2.60;;;;;;;;;;5027976;28;20171;-62
2021/07/19 05:17:39;;;;;;;2.90;2.50;;;;;;;;;;5030363;28;20037;-62
2021/07/19 05:20:09;;;;;;;2.80;2.25;;;;;;;;;;5030637;28;20491;-62
2021/07/19 05:22:35;;;;;;;2.30;2.08;;;;;;;;;;5027263;28;20059;-62
2021/07/19 05:25:01;;;;;;;3.65;2.80;;;;;;;;;;5027202;28;20683;-62
2021/07/19 05:27:27;;;;;;;2.92;2.40;;;;;;;;;;5027339;28;20022;-62
2021/07/19 05:29:53;;;;;;;2.58;2.20;;;;;;;;;;5030220;28;20099;-62
2021/07/19 05:32:19;;;;;;;3.50;2.80;;;;;;;;;;5027745;28;20125;-61
2021/07/19 05:34:45;;;;;;;3.83;2.70;;;;;;;;;;5026929;28;20036;-62
2021/07/19 05:37:12;;;;;;;3.78;2.90;;;;;;;;;;5030800;28;20034;-62
2021/07/19 05:39:38;;;;;;;2.63;2.17;;;;;;;;;;5029344;28;20048;-61
2021/07/19 05:42:04;;;;;;;3.13;2.45;;;;;;;;;;5027782;28;20025;-61
2021/07/19 05:44:30;;;;;;;3.75;2.97;;;;;;;;;;5027265;28;20025;-60
2021/07/19 05:46:56;;;;;;;3.97;2.50;;;;;;;;;;5031737;28;20160;-61
2021/07/19 05:49:22;;;;;;;3.65;2.72;;;;;;;;;;5032115;28;20029;-61
2021/07/19 05:51:48;;;;;;;4.32;3.10;;;;;;;;;;5039732;28;20363;-61
2021/07/19 05:54:14;;;;;;;3.72;3.00;;;;;;;;;;5033635;28;20053;-61
2021/07/19 05:56:40;;;;;;;4.00;2.90;;;;;;;;;;5032483;28;20041;-61
2021/07/19 05:59:07;;;;;;;2.90;2.40;;;;;;;;;;5042870;28;20037;-61
2021/07/19 06:01:33;;;;;;;3.50;2.85;;;;;;;;;;5041018;28;20119;-61
2021/07/19 06:03:59;;;;;;;3.17;2.35;;;;;;;;;;5035842;28;20486;-61
2021/07/19 06:06:26;;;;;;;3.20;2.67;;;;;;;;;;5029220;28;20029;-61
2021/07/19 06:08:52;;;;;;;4.07;2.70;;;;;;;;;;5029331;28;20033;-61
2021/07/19 06:11:18;;;;;;;3.38;2.50;;;;;;;;;;5031187;28;20431;-61
2021/07/19 06:13:44;;;;;;;3.95;2.67;;;;;;;;;;5026976;28;20065;-61
2021/07/19 06:16:10;;;;;;;4.03;3.10;;;;;;;;;;5026956;28;20380;-61
2021/07/19 06:18:36;;;;;;;3.42;2.83;;;;;;;;;;5030129;28;20812;-61
2021/07/19 06:21:02;;;;;;;4.50;2.80;;;;;;;;;;5030025;28;20060;-61
2021/07/19 06:23:28;;;;;;;4.57;2.80;;;;;;;;;;5039452;28;20091;-61
2021/07/19 06:25:54;;;;;;;5.20;3.35;;;;;;;;;;5026754;28;20021;-61
2021/07/19 06:28:22;;;;;;;4.32;3.00;;;;;;;;;;5038679;28;20075;-61
2021/07/19 06:30:48;;;;;;;4.00;2.67;;;;;;;;;;5047205;28;20025;-59
2021/07/19 06:33:14;;;;;;;3.75;3.00;;;;;;;;;;5040902;28;20503;-59
2021/07/19 06:35:40;;;;;;;3.35;2.63;;;;;;;;;;5046679;28;20087;-60
2021/07/19 06:38:06;;;;;;;3.72;2.65;;;;;;;;;;5033250;28;20395;-59
2021/07/19 06:40:33;;;;;;;3.13;2.50;;;;;;;;;;5046592;28;20439;-59
2021/07/19 06:42:59;;;;;;;3.53;2.78;;;;;;;;;;5041988;28;20399;-60
2021/07/19 06:45:26;;;;;;;3.35;2.75;;;;;;;;;;5042127;28;20082;-60
2021/07/19 06:47:52;;;;;;;3.38;2.63;;;;;;;;;;5047612;28;20426;-59
2021/07/19 06:50:18;;;;;;;3.95;2.92;;;;;;;;;;5048122;28;20032;-60
2021/07/19 06:52:45;;;;;;;3.65;2.47;;;;;;;;;;5047668;28;20414;-60
2021/07/19 06:55:11;;;;;;;4.63;3.10;;;;;;;;;;5047404;28;20033;-59
2021/07/19 06:57:38;;;;;;;4.45;3.00;;;;;;;;;;5045503;28;20037;-60
2021/07/19 07:00:08;;;;;;;3.47;2.78;;;;;;;;;;5047189;28;20025;-60
2021/07/19 07:02:34;;;;;;;3.00;2.70;;;;;;;;;;5046958;28;20021;-60
2021/07/19 07:05:00;;;;;;;3.97;2.92;;;;;;;;;;5047443;28;20047;-60
2021/07/19 07:07:26;;;;;;;3.50;2.60;;;;;;;;;;5047383;28;20107;-59
2021/07/19 07:09:52;;;;;;;4.22;2.90;;;;;;;;;;5047039;28;20119;-60
2021/07/19 07:12:18;;;;;;;2.90;2.47;;;;;;;;;;5032655;28;20062;-59
2021/07/19 07:14:45;;;;;;;4.72;3.50;;;;;;;;;;5047346;28;20458;-60
2021/07/19 07:17:11;;;;;;;3.65;3.00;;;;;;;;;;5046705;28;20025;-60
2021/07/19 07:19:37;;;;;;;4.75;3.30;;;;;;;;;;5045407;28;20403;-60
2021/07/19 07:22:03;;;;;;;3.95;3.00;;;;;;;;;;5046365;28;20028;-59
2021/07/19 07:24:29;;;;;;;4.10;3.20;;;;;;;;;;5040985;28;20031;-60
2021/07/19 07:26:55;;;;;;;4.50;3.30;;;;;;;;;;5032720;28;20056;-60
2021/07/19 07:29:21;;;;;;;4.80;3.85;;;;;;;;;;5042560;28;20053;-59
2021/07/19 07:31:47;;;;;;;4.60;3.30;;;;;;;;;;5029128;28;20524;-60
2021/07/19 07:34:13;;;;;;;4.20;3.45;;;;;;;;;;5032018;28;20108;-60
2021/07/19 07:36:39;;;;;;;4.90;3.20;;;;;;;;;;5026632;28;20101;-59
2021/07/19 07:39:07;;;;;;;5.45;3.90;;;;;;;;;;5027271;28;20639;-60
2021/07/19 07:41:34;;;;;;;3.88;3.08;;;;;;;;;;5030386;28;20072;-60
2021/07/19 07:44:00;;;;;;;4.53;3.35;;;;;;;;;;5038799;28;20025;-59
2021/07/19 07:46:26;;;;;;;3.70;2.85;;;;;;;;;;5040363;28;20061;-60
2021/07/19 07:48:53;;;;;;;4.15;2.97;;;;;;;;;;5034324;28;20026;-60
2021/07/19 07:51:20;;;;;;;3.20;2.78;;;;;;;;;;5044372;28;20022;-60
2021/07/19 07:53:46;;;;;;;3.20;2.75;;;;;;;;;;5025040;28;20025;-58
2021/07/19 07:56:12;;;;;;;4.43;3.28;;;;;;;;;;5032010;28;20419;-60
2021/07/19 07:58:38;;;;;;;4.68;3.10;;;;;;;;;;5049041;28;20127;-61
2021/07/19 08:01:04;;;;;;;3.95;2.85;;;;;;;;;;5046348;28;20040;-60
2021/07/19 08:03:30;;;;;;;3.38;3.08;;;;;;;;;;5026760;28;20133;-60
2021/07/19 08:05:57;;;;;;;3.10;2.80;;;;;;;;;;5042766;28;20029;-60
2021/07/19 08:08:23;;;;;;;5.25;3.38;;;;;;;;;;5047716;28;20036;-59
2021/07/19 08:10:50;;;;;;;3.78;3.10;;;;;;;;;;5046683;28;20109;-59
2021/07/19 08:13:16;;;;;;;3.40;2.78;;;;;;;;;;5035847;28;20029;-60
2021/07/19 08:15:47;;;;;;;3.20;2.75;;;;;;;;;;5026866;28;20068;-59
2021/07/19 08:18:15;;;;;;;3.50;2.75;;;;;;;;;;5027105;28;20495;-59
2021/07/19 08:20:42;;;;;;;3.45;2.92;;;;;;;;;;5044881;28;20560;-60
2021/07/19 08:23:08;;;;;;;2.83;2.40;;;;;;;;;;5046518;28;20112;-59
2021/07/19 08:25:34;;;;;;;3.45;2.60;;;;;;;;;;5043428;28;20103;-60
2021/07/19 08:28:00;;;;;;;3.88;2.78;;;;;;;;;;5048766;28;20093;-59
2021/07/19 08:30:27;;;;;;;3.88;3.00;;;;;;;;;;5053842;28;20078;-60
2021/07/19 08:32:54;;;;;;;4.35;3.25;;;;;;;;;;5046205;28;20032;-59
2021/07/19 08:35:20;;;;;;;4.18;3.22;;;;;;;;;;5039408;28;20043;-60
2021/07/19 08:37:47;;;;;;;4.97;3.15;;;;;;;;;;5030724;28;20500;-60
2021/07/19 08:40:14;;;;;;;3.78;2.65;;;;;;;;;;5026428;28;20022;-59
2021/07/19 08:42:41;;;;;;;3.92;3.13;;;;;;;;;;5026676;28;20033;-60
2021/07/19 08:45:09;;;;;;;3.90;2.85;;;;;;;;;;5025565;28;20036;-60
2021/07/19 08:47:49;;;;;;;3.90;3.00;;;;;;;;;;5025940;28;20519;-59
2021/07/19 08:50:16;;;;;;;3.65;2.83;;;;;;;;;;5026330;28;20025;-59
2021/07/19 08:52:42;;;;;;;3.90;3.13;;;;;;;;;;5045664;28;20052;-60
2021/07/19 08:55:10;;;;;;;3.50;2.90;;;;;;;;;;5045273;28;20098;-60
2021/07/19 08:57:39;;;;;;;3.47;2.75;;;;;;;;;;5045944;28;20029;-60
2021/07/19 09:00:06;;;;;;;3.38;2.90;;;;;;;;;;5045655;28;20079;-60
2021/07/19 09:02:32;;;;;;;2.40;2.17;;;;;;;;;;5038658;28;20041;-60
2021/07/19 09:04:58;;;;;;;2.67;2.17;;;;;;;;;;5030934;28;20021;-60
2021/07/19 09:07:24;;;;;;;2.47;2.00;;;;;;;;;;5034146;28;20028;-60
2021/07/19 09:09:51;;;;;;;2.67;1.88;;;;;;;;;;5033879;28;20036;-60
2021/07/19 09:12:17;;;;;;;2.30;2.10;;;;;;;;;;5031375;28;20040;-60
2021/07/19 09:14:48;;;;;;;1.98;1.77;;;;;;;;;;5034573;28;20021;-60
2021/07/19 09:17:21;;;;;;;2.78;1.85;;;;;;;;;;5028791;28;20026;-60
2021/07/19 09:19:47;;;;;;;2.50;1.90;;;;;;;;;;5028097;28;20025;-60
2021/07/19 09:22:21;;;;;;;2.78;1.85;;;;;;;;;;5031599;28;20418;-60
2021/07/19 09:24:48;;;;;;;2.92;2.60;;;;;;;;;;5026121;28;20053;-59
2021/07/19 09:27:21;;;;;;;3.90;2.85;;;;;;;;;;5031667;28;20021;-59
2021/07/19 09:29:48;;;;;;;4.30;3.38;;;;;;;;;;5045995;28;20053;-60
2021/07/19 09:32:14;;;;;;;3.25;2.60;;;;;;;;;;5031010;28;20032;-60
2021/07/19 09:34:41;;;;;;;3.58;2.65;;;;;;;;;;5025598;28;20037;-59
2021/07/19 09:37:09;;;;;;;3.22;2.72;;;;;;;;;;5026416;28;20100;-59
2021/07/19 09:39:45;;;;;;;4.22;3.17;;;;;;;;;;5025427;28;20556;-60
2021/07/19 09:42:15;;;;;;;4.10;3.40;;;;;;;;;;5025017;28;20056;-59
2021/07/19 09:44:47;;;;;;;3.38;3.00;;;;;;;;;;5041035;28;20104;-59
2021/07/19 09:47:13;;;;;;;3.38;3.08;;;;;;;;;;5044329;28;20411;-60
2021/07/19 09:49:40;;;;;;;3.55;3.08;;;;;;;;;;5044866;28;20025;-60
2021/07/19 09:52:07;;;;;;;3.50;2.80;;;;;;;;;;5045783;28;20035;-59
2021/07/19 09:54:34;;;;;;;5.13;3.63;;;;;;;;;;5045893;28;20025;-60
2021/07/19 09:57:01;;;;;;;3.63;2.58;;;;;;;;;;5045000;28;20075;-60
2021/07/19 09:59:27;;;;;;;3.40;2.78;;;;;;;;;;5044944;28;20526;-60
2021/07/19 10:01:53;;;;;;;2.72;2.35;;;;;;;;;;5044880;28;20037;-60
2021/07/19 10:04:23;;;;;;;2.50;2.00;;;;;;;;;;5036543;28;20032;-60
2021/07/19 10:06:53;;;;;;;2.65;2.10;;;;;;;;;;5024711;28;20034;-60
2021/07/19 10:09:21;;;;;;;3.00;2.10;;;;;;;;;;5027710;28;20491;-60
2021/07/19 10:11:48;;;;;;;2.22;2.03;;;;;;;;;;5044504;28;20029;-60
2021/07/19 10:14:23;;;;;;;2.53;2.17;;;;;;;;;;5044981;28;20026;-60
2021/07/19 10:16:50;;;;;;;2.20;1.90;;;;;;;;;;5045826;28;20498;-59
2021/07/19 10:19:17;;;;;;;3.40;2.60;;;;;;;;;;5039514;28;20089;-60
2021/07/19 10:21:43;;;;;;;2.75;2.47;;;;;;;;;;5045346;28;20043;-60
2021/07/19 10:24:09;;;;;;;3.25;2.65;;;;;;;;;;5048533;28;20025;-61
2021/07/19 10:26:36;;;;;;;2.42;2.22;;;;;;;;;;5049559;28;20051;-60
2021/07/19 10:29:04;;;;;;;3.33;2.63;;;;;;;;;;5058215;28;20380;-61
2021/07/19 10:31:30;;;;;;;3.33;2.85;;;;;;;;;;5068687;28;20063;-60
2021/07/19 10:33:58;;;;;;;3.03;2.58;;;;;;;;;;5049028;28;20025;-61
2021/07/19 10:36:39;;;;;;;2.38;2.10;;;;;;;;;;5044946;28;20056;-60
2021/07/19 10:39:07;;;;;;;1.98;1.77;;;;;;;;;;5030541;28;20120;-61
2021/07/19 10:41:33;;;;;;;2.75;2.20;;;;;;;;;;5029357;28;20550;-60
2021/07/19 10:44:00;;;;;;;5.00;2.58;;;;;;;;;;5027746;28;20021;-61
2021/07/19 10:46:27;;;;;;;3.50;2.90;;;;;;;;;;5028908;28;20026;-61
2021/07/19 10:49:02;;;;;;;3.08;2.72;;;;;;;;;;5029705;28;20570;-61
2021/07/19 10:51:38;;;;;;;3.03;2.60;;;;;;;;;;5034813;28;20074;-61
2021/07/19 10:54:16;;;;;;;3.60;3.20;;;;;;;;;;5033307;28;20114;-61
2021/07/19 10:56:42;;;;;;;2.67;2.40;;;;;;;;;;5036433;28;20035;-61
2021/07/19 10:59:08;;;;;;;3.13;2.67;;;;;;;;;;5034815;28;20033;-61
2021/07/19 11:01:34;;;;;;;4.15;2.90;;;;;;;;;;5033314;28;20044;-61
2021/07/19 11:04:02;;;;;;;5.40;3.80;;;;;;;;;;5026490;28;20447;-60
2021/07/19 11:06:39;;;;;;;3.15;2.85;;;;;;;;;;5033152;28;20068;-61
2021/07/19 11:09:06;;;;;;;3.38;2.88;;;;;;;;;;5030644;28;20025;-61
2021/07/19 11:11:34;;;;;;;3.20;2.83;;;;;;;;;;5027176;28;20076;-61
2021/07/19 11:14:04;;;;;;;2.63;2.35;;;;;;;;;;5048792;28;20108;-61
2021/07/19 11:16:46;;;;;;;2.58;2.25;;;;;;;;;;5048662;28;20031;-61
2021/07/19 11:19:13;;;;;;;4.75;2.78;;;;;;;;;;5045121;28;20025;-61
2021/07/19 11:21:39;;;;;;;2.95;2.33;;;;;;;;;;5028317;28;20095;-61
2021/07/19 11:24:15;;;;;;;2.58;2.30;;;;;;;;;;5029031;28;20360;-61
2021/07/19 11:27:10;;;;;;;2.05;1.85;;;;;;;;;;5032979;28;20488;-61
2021/07/19 11:29:39;;;;;;;2.88;2.10;;;;;;;;;;5044105;28;20045;-61
2021/07/19 11:32:17;;;;;;;2.03;1.70;;;;;;;;;;5036776;28;20311;-61
2021/07/19 11:34:44;;;;;;;1.98;1.77;;;;;;;;;;5027362;28;20048;-61
2021/07/19 11:37:10;;;;;;;1.65;1.55;;;;;;;;;;5028248;28;20022;-61
2021/07/19 11:39:43;;;;;;;1.75;1.63;;;;;;;;;;5030628;28;20056;-61
2021/07/19 11:42:10;;;;;;;2.00;1.80;;;;;;;;;;5030356;28;20430;-62
2021/07/19 11:44:37;;;;;;;2.05;1.85;;;;;;;;;;5028379;28;20053;-61
2021/07/19 11:47:05;;;;;;;1.70;1.60;;;;;;;;;;5036025;28;20426;-61
2021/07/19 11:49:32;;;;;;;2.97;1.98;;;;;;;;;;5039666;28;20025;-61
2021/07/19 11:51:58;;;;;;;2.47;1.98;;;;;;;;;;5037579;28;20040;-60
2021/07/19 11:54:24;;;;;;;2.33;2.03;;;;;;;;;;5038596;28;20064;-61
2021/07/19 11:56:55;;;;;;;3.50;2.83;;;;;;;;;;5032359;28;20039;-60
2021/07/19 11:59:23;;;;;;;3.65;3.08;;;;;;;;;;5027878;28;20029;-60
2021/07/19 12:02:04;;;;;;;2.53;2.33;;;;;;;;;;5027523;28;20108;-60
2021/07/19 12:04:40;;;;;;;2.72;2.05;;;;;;;;;;5027885;28;20065;-61
2021/07/19 12:07:07;;;;;;;2.35;2.15;;;;;;;;;;5027963;28;20029;-61
2021/07/19 12:09:33;;;;;;;2.80;2.50;;;;;;;;;;5027409;28;20060;-61
2021/07/19 12:12:01;;;;;;;2.20;2.00;;;;;;;;;;5030667;28;20403;-61
2021/07/19 12:14:27;;;;;;;2.03;1.83;;;;;;;;;;5046986;28;20032;-61
2021/07/19 12:16:54;;;;;;;2.00;1.80;;;;;;;;;;5042460;28;20069;-62
2021/07/19 12:19:21;;;;;;;2.15;1.90;;;;;;;;;;5036797;28;20033;-61
2021/07/19 12:21:54;;;;;;;3.78;2.00;;;;;;;;;;5027149;28;20053;-61
2021/07/19 12:24:25;;;;;;;2.67;2.35;;;;;;;;;;5027098;28;20029;-61
2021/07/19 12:26:54;;;;;;;2.50;2.30;;;;;;;;;;5027981;28;20032;-60
2021/07/19 12:29:34;;;;;;;2.67;2.42;;;;;;;;;;5026787;28;20340;-60
2021/07/19 12:32:04;;;;;;;3.00;2.55;;;;;;;;;;5027289;28;20087;-61
2021/07/19 12:34:34;;;;;;;2.65;2.25;;;;;;;;;;5027241;28;20025;-61
2021/07/19 12:37:00;;;;;;;2.70;2.50;;;;;;;;;;5027003;28;20057;-60
2021/07/19 12:39:28;;;;;;;2.10;1.90;;;;;;;;;;5025567;28;20025;-60
2021/07/19 12:41:54;;;;;;;2.13;1.83;;;;;;;;;;5028025;28;20110;-61
2021/07/19 12:44:23;;;;;;;2.47;2.25;;;;;;;;;;5034310;28;20053;-61
2021/07/19 12:46:51;;;;;;;2.38;2.08;;;;;;;;;;5039392;28;20022;-61
2021/07/19 12:49:33;;;;;;;2.10;1.95;;;;;;;;;;5032734;28;20026;-60
2021/07/19 12:52:17;;;;;;;2.88;2.50;;;;;;;;;;5031013;28;20033;-60
2021/07/19 12:54:56;;;;;;;3.03;2.72;;;;;;;;;;5026760;28;20036;-61
2021/07/19 12:57:22;;;;;;;2.67;2.47;;;;;;;;;;5032664;28;20040;-61
2021/07/19 12:59:51;;;;;;;2.85;2.50;;;;;;;;;;5028646;28;20033;-61
2021/07/19 13:02:17;;;;;;;2.50;2.30;;;;;;;;;;5025062;28;20037;-61
2021/07/19 13:04:43;;;;;;;2.42;2.22;;;;;;;;;;5025713;28;20137;-61
2021/07/19 13:07:09;;;;;;;2.20;2.00;;;;;;;;;;5032377;28;20550;-61
2021/07/19 13:09:36;;;;;;;2.50;2.17;;;;;;;;;;5028538;28;20056;-61
2021/07/19 13:12:07;;;;;;;2.33;2.13;;;;;;;;;;5025879;28;20121;-61
2021/07/19 13:14:41;;;;;;;2.47;2.10;;;;;;;;;;5029024;28;20029;-61
2021/07/19 13:17:08;;;;;;;2.20;2.00;;;;;;;;;;5030490;28;20491;-62
2021/07/19 13:19:35;;;;;;;2.58;2.38;;;;;;;;;;5030161;28;20029;-62
2021/07/19 13:22:02;;;;;;;2.30;2.10;;;;;;;;;;5029989;28;20056;-61
2021/07/19 13:24:35;;;;;;;2.30;2.10;;;;;;;;;;5032880;28;20062;-62
2021/07/19 13:27:02;;;;;;;2.05;1.90;;;;;;;;;;5036445;28;20048;-62
2021/07/19 13:29:29;;;;;;;2.58;2.38;;;;;;;;;;5029374;28;20026;-61
2021/07/19 13:32:05;;;;;;;4.20;2.08;;;;;;;;;;5023827;28;20387;-61
2021/07/19 13:34:31;;;;;;;2.65;2.40;;;;;;;;;;5030609;28;20025;-61
2021/07/19 13:36:57;;;;;;;2.50;2.20;;;;;;;;;;5026984;28;20479;-61
2021/07/19 13:39:30;;;;;;;2.67;2.45;;;;;;;;;;5025741;28;20029;-61
2021/07/19 13:42:13;;;;;;;2.92;2.55;;;;;;;;;;5027869;28;20517;-61
2021/07/19 13:44:40;;;;;;;2.72;1.92;;;;;;;;;;5026920;28;20056;-62
2021/07/19 13:47:06;;;;;;;2.60;2.40;;;;;;;;;;5027293;28;20064;-62
2021/07/19 13:49:33;;;;;;;2.28;1.90;;;;;;;;;;5024785;28;20036;-62
2021/07/19 13:51:59;;;;;;;2.88;2.58;;;;;;;;;;5027435;28;20029;-62
2021/07/19 13:54:25;;;;;;;2.40;2.20;;;;;;;;;;5032502;28;20047;-61
2021/07/19 13:56:51;;;;;;;2.50;2.30;;;;;;;;;;5030593;28;20115;-61
2021/07/19 13:59:17;;;;;;;3.92;2.38;;;;;;;;;;5038303;28;20116;-61
2021/07/19 14:01:43;;;;;;;3.20;2.90;;;;;;;;;;5029213;28;20044;-61
2021/07/19 14:04:09;;;;;;;3.53;2.97;;;;;;;;;;5036892;28;20104;-62
2021/07/19 14:06:35;;;;;;;2.80;2.55;;;;;;;;;;5048290;28;20036;-62
2021/07/19 14:09:02;;;;;;;4.25;2.90;;;;;;;;;;5027738;28;20518;-61
2021/07/19 14:11:28;;;;;;;2.83;2.63;;;;;;;;;;5033232;28;20059;-61
2021/07/19 14:13:54;;;;;;;2.67;2.47;;;;;;;;;;5049891;28;20140;-61
2021/07/19 14:16:21;;;;;;;3.10;2.60;;;;;;;;;;5036127;28;20045;-62
2021/07/19 14:18:47;;;;;;;3.42;2.42;;;;;;;;;;5028978;28;20129;-61
2021/07/19 14:21:13;;;;;;;2.33;2.10;;;;;;;;;;5030069;28;20045;-61
2021/07/19 14:23:39;;;;;;;3.00;2.55;;;;;;;;;;5032741;28;20086;-62
2021/07/19 14:26:06;;;;;;;3.10;2.80;;;;;;;;;;5031988;28;20044;-61
2021/07/19 14:28:32;;;;;;;3.38;2.60;;;;;;;;;;5029931;28;20034;-61
2021/07/19 14:30:58;;;;;;;3.08;2.55;;;;;;;;;;5031179;28;20407;-61
2021/07/19 14:33:24;;;;;;;2.72;2.47;;;;;;;;;;5044959;28;20033;-61
2021/07/19 14:35:52;;;;;;;3.00;2.70;;;;;;;;;;5034850;28;20491;-62
2021/07/19 14:38:18;;;;;;;3.60;2.90;;;;;;;;;;5029202;28;20037;-61
2021/07/19 14:40:44;;;;;;;2.50;2.30;;;;;;;;;;5036558;28;20053;-62
2021/07/19 14:43:10;;;;;;;3.00;2.50;;;;;;;;;;5034513;28;20018;-61
2021/07/19 14:45:36;;;;;;;2.55;2.35;;;;;;;;;;5038805;28;20047;-62